Time;durP1;ratioP1;P1;durP2;ratioP2;P2;SDS_P1;SDS_P2;PMS_P1;PMS_P2;Temp;Humidity;BMP_temperature;BMP_pressure;BME280_temperature;BME280_humidity;BME280_pressure;Samples;Min_cycle;Max_cycle;Signal;HPM_P1;HPM_P2
2022/04/03 00:01:42;;;;;;;;;;;;;;;0.09;100.00;99131.06;5071188;28;19927;-82
2022/04/03 00:04:07;;;;;;;;;;;;;;;0.07;100.00;99129.91;5072044;28;20374;-82
2022/04/03 00:06:32;;;;;;;;;;;;;;;0.06;100.00;99125.63;5061517;28;19925;-82
2022/04/03 00:08:58;;;;;;;;;;;;;;;0.03;100.00;99119.00;5065806;28;19927;-82
2022/04/03 00:11:25;;;;;;;;;;;;;;;0.05;100.00;99138.47;5057620;28;19921;-82
2022/04/03 00:13:50;;;;;;;;;;;;;;;-0.01;100.00;99138.09;5074038;28;19931;-82
2022/04/03 00:16:15;;;;;;;;;;;;;;;0.04;100.00;99130.69;5086857;28;19920;-88
2022/04/03 00:18:41;;;;;;;;;;;;;;;0.01;100.00;99140.41;5070088;28;19920;-88
2022/04/03 00:21:06;;;;;;;;;;;;;;;-0.01;100.00;99140.81;5061045;28;19920;-89
2022/04/03 00:23:32;;;;;;;;;;;;;;;-0.03;100.00;99143.13;5074196;28;20413;-87
2022/04/03 00:25:57;;;;;;;;;;;;;;;-0.03;100.00;99145.84;5072999;28;19999;-88
2022/04/03 00:28:23;;;;;;;;;;;;;;;-0.01;100.00;99151.72;5081310;28;20290;-89
2022/04/03 00:30:48;;;;;;;;;;;;;;;-0.02;100.00;99144.69;5071123;28;20290;-88
2022/04/03 00:33:14;;;;;;;;;;;;;;;0.00;100.00;99150.53;5086299;28;19939;-82
2022/04/03 00:35:39;;;;;;;;;;;;;;;-0.04;100.00;99152.47;5070456;28;19927;-88
2022/04/03 00:38:05;;;;;;;;;;;;;;;-0.03;100.00;99145.06;5078565;28;19927;-88
2022/04/03 00:40:30;;;;;;;;;;;;;;;-0.03;100.00;99156.75;5053541;28;19927;-88
2022/04/03 00:42:56;;;;;;;;;;;;;;;-0.03;100.00;99159.50;5070919;28;19927;-89
2022/04/03 00:45:21;;;;;;;;;;;;;;;-0.01;100.00;99159.91;5071672;28;19920;-88
2022/04/03 00:47:54;;;;;;;;;;;;;;;-0.01;100.00;99148.22;5074276;28;19980;-86
2022/04/03 00:50:20;;;;;;;;;;;;;;;-0.02;100.00;99152.09;5065747;28;19920;-83
2022/04/03 00:52:46;;;;;;;;;;;;;;;-0.03;100.00;99151.31;5072741;28;19916;-82
2022/04/03 00:55:11;;;;;;;;;;;;;;;-0.02;100.00;99158.31;5069017;28;19973;-82
2022/04/03 00:57:38;;;;;;;;;;;;;;;-0.02;100.00;99158.31;5061008;28;20307;-82
2022/04/03 01:00:04;;;;;;;;;;;;;;;-0.03;100.00;99161.44;5068238;28;19928;-82
2022/04/03 01:02:31;;;;;;;;;;;;;;;-0.03;100.00;99167.66;5318003;22;19928;-85
2022/04/03 01:04:57;;;;;;;;;;;;;;;-0.04;100.00;99155.19;5052297;28;20009;-86
2022/04/03 01:07:22;;;;;;;;;;;;;;;-0.02;100.00;99165.72;5073403;28;19967;-86
2022/04/03 01:09:47;;;;;;;;;;;;;;;-0.01;100.00;99162.63;5040775;28;20381;-86
2022/04/03 01:12:13;;;;;;;;;;;;;;;0.00;100.00;99166.88;5075683;28;19990;-86
2022/04/03 01:14:39;;;;;;;;;;;;;;;0.00;100.00;99172.34;5070144;28;20462;-85
2022/04/03 01:17:05;;;;;;;;;;;;;;;-0.01;100.00;99151.72;5076237;28;19920;-86
2022/04/03 01:19:31;;;;;;;;;;;;;;;-0.01;100.00;99175.47;5053355;28;19927;-86
2022/04/03 01:21:56;;;;;;;;;;;;;;;-0.01;100.00;99170.81;5058270;28;19929;-85
2022/04/03 01:24:22;;;;;;;;;;;;;;;-0.01;100.00;99168.06;5059531;28;19924;-85
2022/04/03 01:26:47;;;;;;;;;;;;;;;-0.01;100.00;99173.53;5072535;28;19920;-85
2022/04/03 01:29:13;;;;;;;;;;;;;;;0.00;100.00;99172.34;5070665;28;19971;-85
2022/04/03 01:31:38;;;;;;;;;;;;;;;0.02;100.00;99179.34;5062305;28;19920;-84
2022/04/03 01:34:04;;;;;;;;;;;;;;;0.01;100.00;99175.84;5064216;28;20003;-85
2022/04/03 01:36:29;;;;;;;;;;;;;;;0.02;100.00;99174.69;5071516;28;19920;-85
2022/04/03 01:38:54;;;;;;;;;;;;;;;0.00;100.00;99177.78;5070752;28;19920;-86
2022/04/03 01:41:20;;;;;;;;;;;;;;;0.02;100.00;99182.09;5075181;28;20383;-84
2022/04/03 01:43:45;;;;;;;;;;;;;;;0.01;100.00;99178.56;5075509;28;20441;-84
2022/04/03 01:46:10;;;;;;;;;;;;;;;0.00;100.00;99187.94;5074049;28;19920;-84
2022/04/03 01:48:36;;;;;;;;;;;;;;;-0.01;100.00;99186.38;5069709;28;19924;-84
2022/04/03 01:51:01;;;;;;;;;;;;;;;-0.03;100.00;99175.84;5069935;28;20483;-84
2022/04/03 01:53:27;;;;;;;;;;;;;;;-0.06;100.00;99189.47;5068757;28;19974;-84
2022/04/03 01:55:59;;;;;;;;;;;;;;;-0.07;100.00;99187.91;5076659;28;20057;-84
2022/04/03 01:58:25;;;;;;;;;;;;;;;-0.09;100.00;99191.03;5069229;28;19985;-84
2022/04/03 02:00:51;;;;;;;;;;;;;;;-0.09;100.00;99179.34;5077509;28;19921;-85
2022/04/03 02:03:17;;;;;;;;;;;;;;;-0.11;100.00;99179.72;5074575;28;19931;-85
2022/04/03 02:05:43;;;;;;;;;;;;;;;-0.11;100.00;99187.13;5072713;28;19925;-85
2022/04/03 02:08:09;;;;;;;;;;;;;;;-0.10;100.00;99184.03;5059609;28;19971;-86
2022/04/03 02:10:35;;;;;;;;;;;;;;;-0.08;100.00;99192.56;5065660;28;19962;-85
2022/04/03 02:13:00;;;;;;;;;;;;;;;-0.12;100.00;99191.03;5072057;28;20373;-85
2022/04/03 02:15:26;;;;;;;;;;;;;;;-0.11;100.00;99198.81;5067936;28;19928;-85
2022/04/03 02:17:51;;;;;;;;;;;;;;;-0.14;100.00;99188.69;5057764;28;19924;-84
2022/04/03 02:20:16;;;;;;;;;;;;;;;-0.09;100.00;99195.72;5075180;28;19939;-84
2022/04/03 02:22:42;;;;;;;;;;;;;;;-0.09;100.00;99196.50;5075002;28;19928;-84
2022/04/03 02:25:11;;;;;;;;;;;;;;;-0.10;100.00;99194.91;5070175;28;19929;-84
2022/04/03 02:27:40;;;;;;;;;;;;;;;-0.09;100.00;99195.72;5069517;28;19943;-84
2022/04/03 02:30:08;;;;;;;;;;;;;;;-0.11;100.00;99193.34;5069908;28;19921;-84
2022/04/03 02:32:36;;;;;;;;;;;;;;;-0.11;100.00;99209.72;5073857;28;19924;-84
2022/04/03 02:35:03;;;;;;;;;;;;;;;-0.10;100.00;99216.72;5071242;28;20031;-84
2022/04/03 02:37:29;;;;;;;;;;;;;;;-0.09;100.00;99207.41;5071125;28;20292;-84
2022/04/03 02:39:54;;;;;;;;;;;;;;;-0.10;100.00;99216.72;5073855;28;19928;-85
2022/04/03 02:42:20;;;;;;;;;;;;;;;-0.11;100.00;99209.72;5073209;28;19920;-85
2022/04/03 02:44:46;;;;;;;;;;;;;;;-0.13;100.00;99217.50;5070597;28;20003;-85
2022/04/03 02:47:11;;;;;;;;;;;;;;;-0.13;100.00;99222.16;5076166;28;19974;-85
2022/04/03 02:49:36;;;;;;;;;;;;;;;-0.13;100.00;99211.28;5069294;28;19944;-85
2022/04/03 02:52:02;;;;;;;;;;;;;;;-0.13;100.00;99231.13;5073995;28;19940;-84
2022/04/03 02:54:27;;;;;;;;;;;;;;;-0.13;100.00;99233.84;5068689;28;19932;-84
2022/04/03 02:56:53;;;;;;;;;;;;;;;-0.13;100.00;99241.25;5068630;28;19999;-85
2022/04/03 02:59:18;;;;;;;;;;;;;;;-0.12;100.00;99237.38;5070468;28;20379;-84
2022/04/03 03:01:43;;;;;;;;;;;;;;;-0.14;100.00;99239.69;5065725;28;19924;-84
2022/04/03 03:04:09;;;;;;;;;;;;;;;-0.12;100.00;99240.09;5065740;28;19928;-84
2022/04/03 03:06:34;;;;;;;;;;;;;;;-0.14;100.00;99234.22;5069299;28;19920;-84
2022/04/03 03:09:00;;;;;;;;;;;;;;;-0.14;100.00;99235.03;5076477;28;19920;-84
2022/04/03 03:11:25;;;;;;;;;;;;;;;-0.15;100.00;99247.09;5065413;28;19921;-84
2022/04/03 03:13:51;;;;;;;;;;;;;;;-0.14;100.00;99254.09;5063390;28;19923;-85
2022/04/03 03:16:16;;;;;;;;;;;;;;;-0.14;100.00;99261.50;5075058;28;20336;-84
2022/04/03 03:18:44;;;;;;;;;;;;;;;-0.13;100.00;99252.16;5074585;28;21411;-84
2022/04/03 03:21:09;;;;;;;;;;;;;;;-0.14;100.00;99265.00;5069934;28;20438;-84
2022/04/03 03:23:35;;;;;;;;;;;;;;;-0.16;100.00;99263.84;5055566;28;19928;-83
2022/04/03 03:26:01;;;;;;;;;;;;;;;-0.15;100.00;99265.38;5071091;28;19920;-84
2022/04/03 03:28:27;;;;;;;;;;;;;;;-0.18;100.00;99263.44;5076651;28;19947;-83
2022/04/03 03:30:52;;;;;;;;;;;;;;;-0.18;100.00;99275.13;5072079;28;19921;-84
2022/04/03 03:33:17;;;;;;;;;;;;;;;-0.19;100.00;99281.72;5057630;28;19924;-84
2022/04/03 03:35:43;;;;;;;;;;;;;;;-0.21;100.00;99275.88;5079391;28;19930;-84
2022/04/03 03:38:09;;;;;;;;;;;;;;;-0.21;100.00;99281.34;5079337;28;19966;-84
2022/04/03 03:40:38;;;;;;;;;;;;;;;-0.20;100.00;99282.88;5072558;28;20281;-85
2022/04/03 03:43:04;;;;;;;;;;;;;;;-0.20;100.00;99271.97;5079227;28;19947;-84
2022/04/03 03:45:29;;;;;;;;;;;;;;;-0.20;100.00;99291.06;5073213;28;19971;-85
2022/04/03 03:47:57;;;;;;;;;;;;;;;-0.22;100.00;99300.78;5076787;28;20017;-84
2022/04/03 03:50:22;;;;;;;;;;;;;;;-0.22;100.00;99289.88;5071044;28;19936;-84
2022/04/03 03:52:48;;;;;;;;;;;;;;;-0.22;100.00;99306.25;5070185;28;19924;-84
2022/04/03 03:55:13;;;;;;;;;;;;;;;-0.26;100.00;99314.41;5071795;28;20378;-85
2022/04/03 03:57:39;;;;;;;;;;;;;;;-0.26;100.00;99289.88;5071324;28;20385;-84
2022/04/03 04:00:05;;;;;;;;;;;;;;;-0.27;100.00;99320.22;5072989;28;19928;-85
2022/04/03 04:02:37;;;;;;;;;;;;;;;-0.25;100.00;99324.16;5073274;28;19920;-84
2022/04/03 04:05:03;;;;;;;;;;;;;;;-0.27;100.00;99328.41;5074951;28;19928;-84
2022/04/03 04:07:38;;;;;;;;;;;;;;;-0.29;100.00;99323.34;5053561;28;19986;-84
2022/04/03 04:10:04;;;;;;;;;;;;;;;-0.36;100.00;99334.19;5073956;28;20019;-84
2022/04/03 04:12:29;;;;;;;;;;;;;;;-0.39;100.00;99334.97;5070685;28;20046;-84
2022/04/03 04:14:54;;;;;;;;;;;;;;;-0.32;100.00;99340.44;5067829;28;19928;-84
2022/04/03 04:17:20;;;;;;;;;;;;;;;-0.31;100.00;99344.72;5073347;28;19929;-84
2022/04/03 04:19:45;;;;;;;;;;;;;;;-0.31;100.00;99342.00;5078550;28;19921;-84
2022/04/03 04:22:12;;;;;;;;;;;;;;;-0.33;100.00;99360.69;5078161;28;20454;-84
2022/04/03 04:24:37;;;;;;;;;;;;;;;-0.33;100.00;99360.69;5066348;28;20003;-85
2022/04/03 04:27:03;;;;;;;;;;;;;;;-0.31;100.00;99352.91;5069014;28;19932;-85
2022/04/03 04:29:29;;;;;;;;;;;;;;;-0.31;100.00;99360.31;5069927;28;19921;-85
2022/04/03 04:31:54;;;;;;;;;;;;;;;-0.30;100.00;99359.94;5077447;28;19966;-85
2022/04/03 04:34:20;;;;;;;;;;;;;;;-0.29;100.00;99372.41;5078298;28;19927;-84
2022/04/03 04:36:45;;;;;;;;;;;;;;;-0.28;100.00;99368.50;5075846;28;19924;-84
2022/04/03 04:39:10;;;;;;;;;;;;;;;-0.26;100.00;99377.09;5073896;28;20451;-84
2022/04/03 04:41:36;;;;;;;;;;;;;;;-0.23;100.00;99391.88;5078046;28;20139;-85
2022/04/03 04:44:01;;;;;;;;;;;;;;;-0.22;100.00;99377.88;5075221;28;19929;-85
2022/04/03 04:46:26;;;;;;;;;;;;;;;-0.19;100.00;99398.94;5075830;28;19924;-85
2022/04/03 04:48:52;;;;;;;;;;;;;;;-0.18;100.00;99400.50;5077211;28;19920;-85
2022/04/03 04:51:17;;;;;;;;;;;;;;;-0.16;100.00;99405.56;5074044;28;19961;-85
2022/04/03 04:53:42;;;;;;;;;;;;;;;-0.14;100.00;99412.19;5077515;28;19927;-85
2022/04/03 04:56:08;;;;;;;;;;;;;;;-0.11;100.00;99410.66;5071568;28;19920;-85
2022/04/03 04:58:34;;;;;;;;;;;;;;;-0.13;100.00;99419.22;5071940;28;19979;-84
2022/04/03 05:00:59;;;;;;;;;;;;;;;-0.10;100.00;99437.53;5069793;28;19975;-84
2022/04/03 05:03:24;;;;;;;;;;;;;;;-0.09;100.00;99436.38;5071709;28;20309;-85
2022/04/03 05:05:50;;;;;;;;;;;;;;;-0.10;100.00;99440.25;5078511;28;19920;-85
2022/04/03 05:08:15;;;;;;;;;;;;;;;-0.09;100.00;99449.22;5070210;28;20337;-84
2022/04/03 05:10:41;;;;;;;;;;;;;;;-0.09;100.00;99441.84;5076760;28;20013;-83
2022/04/03 05:13:09;;;;;;;;;;;;;;;-0.08;100.00;99454.28;5073100;28;19928;-84
2022/04/03 05:15:35;;;;;;;;;;;;;;;-0.09;100.00;99462.88;5078850;28;19934;-84
2022/04/03 05:18:00;;;;;;;;;;;;;;;-0.09;100.00;99473.78;5071078;28;19928;-83
2022/04/03 05:20:26;;;;;;;;;;;;;;;-0.09;100.00;99468.31;5078823;28;19927;-83
2022/04/03 05:22:51;;;;;;;;;;;;;;;-0.10;100.00;99472.97;5073753;28;19963;-83
2022/04/03 05:25:17;;;;;;;;;;;;;;;-0.07;100.00;99455.06;5071603;28;19924;-83
2022/04/03 05:27:44;;;;;;;;;;;;;;;-0.05;100.00;99480.81;5075908;28;19920;-84
2022/04/03 05:30:10;;;;;;;;;;;;;;;-0.04;100.00;99476.91;5049613;28;20450;-84
2022/04/03 05:32:36;;;;;;;;;;;;;;;-0.01;100.00;99486.28;5069502;28;19996;-84
2022/04/03 05:35:02;;;;;;;;;;;;;;;0.00;100.00;99483.16;5067655;28;19927;-84
2022/04/03 05:37:27;;;;;;;;;;;;;;;0.03;100.00;99491.75;5066833;28;20419;-83
2022/04/03 05:39:53;;;;;;;;;;;;;;;0.06;100.00;99491.78;5071123;28;19920;-84
2022/04/03 05:42:18;;;;;;;;;;;;;;;0.09;100.00;99490.22;5073809;28;20420;-83
2022/04/03 05:44:44;;;;;;;;;;;;;;;0.11;100.00;99493.38;5055938;28;19920;-83
2022/04/03 05:47:09;;;;;;;;;;;;;;;0.14;100.00;99498.06;5071450;28;19989;-84
2022/04/03 05:49:35;;;;;;;;;;;;;;;0.16;100.00;99501.19;5070834;28;19959;-83
2022/04/03 05:52:01;;;;;;;;;;;;;;;0.17;100.00;99508.97;5061407;28;19920;-84
2022/04/03 05:54:26;;;;;;;;;;;;;;;0.20;100.00;99518.38;5036471;28;19936;-83
2022/04/03 05:56:52;;;;;;;;;;;;;;;0.22;100.00;99511.38;5069584;28;20360;-83
2022/04/03 05:59:19;;;;;;;;;;;;;;;0.22;100.00;99518.75;5072638;28;19991;-83
2022/04/03 06:01:45;;;;;;;;;;;;;;;0.28;100.00;99525.44;5070486;28;19928;-83
2022/04/03 06:04:11;;;;;;;;;;;;;;;0.30;100.00;99539.47;5073828;28;20324;-83
2022/04/03 06:06:36;;;;;;;;;;;;;;;0.33;100.00;99538.69;5077993;28;19924;-83
2022/04/03 06:09:02;;;;;;;;;;;;;;;0.36;100.00;99535.22;5072915;28;19946;-83
2022/04/03 06:11:27;;;;;;;;;;;;;;;0.38;100.00;99535.63;5068380;28;19927;-83
2022/04/03 06:13:52;;;;;;;;;;;;;;;0.41;100.00;99535.63;5069080;28;19951;-82
2022/04/03 06:16:18;;;;;;;;;;;;;;;0.45;100.00;99546.56;5069679;28;19920;-84
2022/04/03 06:18:43;;;;;;;;;;;;;;;0.48;100.00;99543.09;5049990;28;20294;-83
2022/04/03 06:21:09;;;;;;;;;;;;;;;0.52;100.00;99546.63;5055740;28;19981;-83
2022/04/03 06:23:34;;;;;;;;;;;;;;;0.54;100.00;99555.19;5033687;28;20019;-83
2022/04/03 06:26:00;;;;;;;;;;;;;;;0.57;100.00;99546.25;5073844;28;19935;-83
2022/04/03 06:28:25;;;;;;;;;;;;;;;0.59;100.00;99554.06;5071375;28;19924;-83
2022/04/03 06:30:51;;;;;;;;;;;;;;;0.61;100.00;99566.16;5069035;28;19926;-82
2022/04/03 06:33:17;;;;;;;;;;;;;;;0.63;100.00;99569.28;5057261;28;19955;-82
2022/04/03 06:35:42;;;;;;;;;;;;;;;0.64;100.00;99568.13;5044891;28;20306;-82
2022/04/03 06:38:08;;;;;;;;;;;;;;;0.66;100.00;99573.19;5065503;28;19924;-82
2022/04/03 06:40:33;;;;;;;;;;;;;;;0.67;100.00;99574.78;5063737;28;19921;-82
2022/04/03 06:42:58;;;;;;;;;;;;;;;0.69;100.00;99584.13;5067657;28;19927;-83
2022/04/03 06:45:24;;;;;;;;;;;;;;;0.69;100.00;99584.13;5069044;28;19921;-81
2022/04/03 06:47:49;;;;;;;;;;;;;;;0.70;100.00;99580.25;5067202;28;19923;-80
2022/04/03 06:50:15;;;;;;;;;;;;;;;0.73;100.00;99584.19;5065247;28;19956;-81
2022/04/03 06:52:40;;;;;;;;;;;;;;;0.75;100.00;99590.81;5054683;28;19958;-81
2022/04/03 06:55:06;;;;;;;;;;;;;;;0.80;100.00;99589.66;5069648;28;20336;-81
2022/04/03 06:57:32;;;;;;;;;;;;;;;0.82;100.00;99598.25;5073139;28;19920;-82
2022/04/03 06:59:57;;;;;;;;;;;;;;;0.84;100.00;99593.19;5048670;28;20015;-81
2022/04/03 07:02:22;;;;;;;;;;;;;;;0.87;100.00;99601.41;5067163;28;19921;-82
2022/04/03 07:04:48;;;;;;;;;;;;;;;0.92;100.00;99606.50;5068442;28;19924;-80
2022/04/03 07:07:21;;;;;;;;;;;;;;;0.92;100.00;99609.25;5073840;28;19920;-81
2022/04/03 07:09:46;;;;;;;;;;;;;;;0.96;100.00;99608.47;5070435;28;20407;-81
2022/04/03 07:12:12;;;;;;;;;;;;;;;0.97;100.00;99613.56;5070974;28;19928;-81
2022/04/03 07:14:37;;;;;;;;;;;;;;;0.99;100.00;99618.63;5070775;28;19924;-81
2022/04/03 07:17:03;;;;;;;;;;;;;;;1.00;100.00;99626.44;5069277;28;19917;-80
2022/04/03 07:19:28;;;;;;;;;;;;;;;1.03;100.00;99635.81;5068007;28;19920;-81
2022/04/03 07:21:54;;;;;;;;;;;;;;;1.06;100.00;99643.22;5073989;28;19942;-81
2022/04/03 07:24:19;;;;;;;;;;;;;;;1.10;100.00;99635.84;5070136;28;19931;-82
2022/04/03 07:26:45;;;;;;;;;;;;;;;1.13;100.00;99646.03;5077773;28;20446;-82
2022/04/03 07:29:10;;;;;;;;;;;;;;;1.16;100.00;99650.72;5071940;28;19920;-82
2022/04/03 07:31:35;;;;;;;;;;;;;;;1.18;100.00;99653.81;5069147;28;19944;-82
2022/04/03 07:34:01;;;;;;;;;;;;;;;1.20;100.00;99657.75;5078963;28;20434;-82
2022/04/03 07:36:26;;;;;;;;;;;;;;;1.27;100.00;99657.00;5070118;28;19956;-81
2022/04/03 07:38:52;;;;;;;;;;;;;;;1.32;100.00;99664.84;5056827;28;19969;-82
2022/04/03 07:41:20;;;;;;;;;;;;;;;1.37;100.00;99651.59;5069596;28;20007;-81
2022/04/03 07:43:45;;;;;;;;;;;;;;;1.44;100.00;99671.91;5069167;28;20058;-81
2022/04/03 07:46:16;;;;;;;;;;;;;;;1.50;99.66;99673.13;5069690;28;19924;-81
2022/04/03 07:48:41;;;;;;;;;;;;;;;1.60;100.00;99686.03;5064829;28;19924;-81
2022/04/03 07:51:06;;;;;;;;;;;;;;;1.67;100.00;99681.34;5072196;28;19946;-81
2022/04/03 07:53:32;;;;;;;;;;;;;;;1.79;100.00;99683.75;5069076;28;19935;-82
2022/04/03 07:55:57;;;;;;;;;;;;;;;1.84;100.00;99696.25;5069520;28;19928;-81
2022/04/03 07:58:22;;;;;;;;;;;;;;;1.93;97.13;99683.00;5065978;28;20007;-81
2022/04/03 08:00:48;;;;;;;;;;;;;;;2.04;99.88;99699.44;5071616;28;20374;-82
2022/04/03 08:03:14;;;;;;;;;;;;;;;2.05;94.84;99701.78;5068108;28;19928;-81
2022/04/03 08:05:40;;;;;;;;;;;;;;;1.98;93.46;99712.72;5062941;28;19924;-81
2022/04/03 08:08:06;;;;;;;;;;;;;;;1.98;95.76;99703.72;5066917;28;19908;-81
2022/04/03 08:10:31;;;;;;;;;;;;;;;1.96;92.27;99719.72;5068359;28;19920;-81
2022/04/03 08:12:57;;;;;;;;;;;;;;;1.96;95.39;99714.25;5061925;28;20570;-81
2022/04/03 08:15:22;;;;;;;;;;;;;;;1.98;95.54;99717.41;5050070;28;20335;-81
2022/04/03 08:17:48;;;;;;;;;;;;;;;1.97;92.77;99716.63;5065328;28;19999;-80
2022/04/03 08:20:19;;;;;;;;;;;;;;;1.97;92.37;99722.09;5069694;28;19927;-81
2022/04/03 08:22:45;;;;;;;;;;;;;;;1.99;89.30;99732.63;5067584;28;20439;-81
2022/04/03 08:25:12;;;;;;;;;;;;;;;2.07;91.54;99732.28;5064420;28;20361;-81
2022/04/03 08:27:42;;;;;;;;;;;;;;;2.16;91.63;99738.16;5047962;28;20023;-81
2022/04/03 08:30:10;;;;;;;;;;;;;;;2.25;86.72;99738.56;5051089;28;19970;-81
2022/04/03 08:32:35;;;;;;;;;;;;;;;2.29;85.59;99739.38;5046163;28;20432;-80
2022/04/03 08:35:00;;;;;;;;;;;;;;;2.40;88.20;99749.53;5068303;28;19962;-81
2022/04/03 08:37:27;;;;;;;;;;;;;;;2.48;84.03;99753.84;5066103;28;19952;-81
2022/04/03 08:39:53;;;;;;;;;;;;;;;2.59;82.28;99760.91;5065166;28;19954;-81
2022/04/03 08:42:18;;;;;;;;;;;;;;;2.76;84.49;99757.38;5068027;28;19924;-81
2022/04/03 08:44:43;;;;;;;;;;;;;;;3.00;83.81;99755.03;5069632;28;19935;-82
2022/04/03 08:47:09;;;;;;;;;;;;;;;3.14;81.88;99768.72;5068907;28;19928;-82
2022/04/03 08:49:35;;;;;;;;;;;;;;;3.32;84.05;99771.47;5061907;28;20023;-82
2022/04/03 08:52:01;;;;;;;;;;;;;;;3.45;80.66;99769.84;5043904;28;20036;-82
2022/04/03 08:54:26;;;;;;;;;;;;;;;3.45;78.98;99764.34;5045249;28;20264;-82
2022/04/03 08:56:52;;;;;;;;;;;;;;;3.34;78.69;99780.84;5065070;28;19974;-83
2022/04/03 08:59:18;;;;;;;;;;;;;;;3.24;78.35;99782.41;5064925;28;19987;-81
2022/04/03 09:01:43;;;;;;;;;;;;;;;3.22;77.17;99778.50;5066990;28;19931;-81
2022/04/03 09:04:09;;;;;;;;;;;;;;;3.17;79.34;99776.94;5062095;28;19928;-81
2022/04/03 09:06:34;;;;;;;;;;;;;;;3.15;76.63;99784.00;5067497;28;19924;-81
2022/04/03 09:08:59;;;;;;;;;;;;;;;3.19;77.21;99795.75;5064511;28;20665;-81
2022/04/03 09:11:27;;;;;;;;;;;;;;;3.20;77.92;99797.28;5070391;28;19965;-81
2022/04/03 09:13:53;;;;;;;;;;;;;;;3.33;79.43;99801.19;5063456;28;19928;-81
2022/04/03 09:16:18;;;;;;;;;;;;;;;3.39;72.92;99794.16;5049714;28;19924;-83
2022/04/03 09:18:44;;;;;;;;;;;;;;;3.28;72.63;99809.81;5063861;28;20019;-81
2022/04/03 09:21:17;;;;;;;;;;;;;;;3.24;71.45;99812.56;5049625;28;20369;-81
2022/04/03 09:23:58;;;;;;;;;;;;;;;3.25;72.51;99810.59;5065302;28;19966;-81
2022/04/03 09:26:24;;;;;;;;;;;;;;;3.46;74.92;99810.59;5069898;28;20397;-82
2022/04/03 09:28:49;;;;;;;;;;;;;;;3.53;74.18;99816.06;5066043;28;19936;-82
2022/04/03 09:31:24;;;;;;;;;;;;;;;3.73;75.38;99821.88;5068499;28;19966;-82
2022/04/03 09:34:00;;;;;;;;;;;;;;;3.97;73.36;99817.50;5063143;28;19931;-81
2022/04/03 09:36:25;;;;;;;;;;;;;;;4.33;76.82;99818.16;5060190;28;20468;-81
2022/04/03 09:38:51;;;;;;;;;;;;;;;4.48;70.61;99830.63;5046370;28;19936;-80
2022/04/03 09:41:16;;;;;;;;;;;;;;;4.30;67.02;99830.69;5046896;28;19921;-81
2022/04/03 09:43:41;;;;;;;;;;;;;;;4.33;69.58;99831.88;5035059;28;20402;-81
2022/04/03 09:46:10;;;;;;;;;;;;;;;4.42;69.14;99843.97;5058435;28;19990;-80
2022/04/03 09:48:39;;;;;;;;;;;;;;;4.46;70.28;99844.72;5058548;28;19928;-80
2022/04/03 09:51:05;;;;;;;;;;;;;;;4.70;67.87;99835.56;5042437;28;20389;-81
2022/04/03 09:53:41;;;;;;;;;;;;;;;5.00;69.42;99840.47;5048593;28;20004;-81
2022/04/03 09:56:10;;;;;;;;;;;;;;;5.26;70.36;99841.81;5066072;28;19920;-81
2022/04/03 09:58:51;;;;;;;;;;;;;;;5.47;65.87;99844.41;5055316;28;19920;-81
2022/04/03 10:01:35;;;;;;;;;;;;;;;5.72;65.52;99835.91;5057882;28;19923;-81
2022/04/03 10:04:02;;;;;;;;;;;;;;;5.93;63.46;99845.94;5043870;28;19939;-81
2022/04/03 10:06:27;;;;;;;;;;;;;;;5.87;62.47;99831.84;5055573;28;19921;-81
2022/04/03 10:08:53;;;;;;;;;;;;;;;5.83;64.59;99828.31;5044962;28;19999;-80
2022/04/03 10:11:19;;;;;;;;;;;;;;;5.86;62.62;99834.97;5060795;28;20344;-81
2022/04/03 10:13:44;;;;;;;;;;;;;;;5.85;64.17;99833.41;5051159;28;20377;-81
2022/04/03 10:16:10;;;;;;;;;;;;;;;5.80;58.92;99831.09;5047887;28;19935;-85
2022/04/03 10:18:36;;;;;;;;;;;;;;;5.85;61.54;99838.91;5059342;28;20319;-85
2022/04/03 10:21:01;;;;;;;;;;;;;;;6.06;64.77;99839.50;5060820;28;19931;-84
2022/04/03 10:23:27;;;;;;;;;;;;;;;6.06;60.80;99844.22;5047379;28;19924;-85
2022/04/03 10:25:54;;;;;;;;;;;;;;;5.75;60.87;99837.03;5047991;28;19920;-84
2022/04/03 10:28:20;;;;;;;;;;;;;;;5.85;61.04;99845.22;5062034;28;19920;-85
2022/04/03 10:30:45;;;;;;;;;;;;;;;6.04;64.42;99846.59;5044340;28;19925;-85
2022/04/03 10:33:19;;;;;;;;;;;;;;;6.13;63.22;99846.09;5051175;28;19926;-85
2022/04/03 10:35:48;;;;;;;;;;;;;;;6.02;62.26;99860.00;5046262;28;19939;-85
2022/04/03 10:38:14;;;;;;;;;;;;;;;5.84;61.61;99864.88;5066280;28;19928;-85
2022/04/03 10:40:39;;;;;;;;;;;;;;;5.99;62.32;99863.56;5040923;28;19925;-85
2022/04/03 10:43:06;;;;;;;;;;;;;;;6.06;61.32;99867.03;5062682;28;19948;-85
2022/04/03 10:45:32;;;;;;;;;;;;;;;6.40;60.68;99869.78;5057083;28;19921;-85
2022/04/03 10:48:17;;;;;;;;;;;;;;;6.55;58.90;99865.63;5056728;28;20396;-85
2022/04/03 10:51:01;;;;;;;;;;;;;;;6.54;57.09;99875.09;5054957;28;19924;-85
2022/04/03 10:53:28;;;;;;;;;;;;;;;6.67;56.01;99861.56;5070601;28;20008;-85
2022/04/03 10:55:56;;;;;;;;;;;;;;;6.71;55.22;99867.03;5072129;28;20467;-85
2022/04/03 10:58:22;;;;;;;;;;;;;;;6.41;54.47;99860.31;5033462;28;19982;-84
2022/04/03 11:00:47;;;;;;;;;;;;;;;6.22;57.56;99880.22;5044307;28;19921;-85
2022/04/03 11:03:13;;;;;;;;;;;;;;;5.98;56.71;99882.06;5057383;28;19927;-85
2022/04/03 11:05:39;;;;;;;;;;;;;;;5.84;57.75;99882.19;5070782;28;19920;-88
2022/04/03 11:08:04;;;;;;;;;;;;;;;5.82;59.67;99892.03;5065336;28;19920;-88
2022/04/03 11:10:54;;;;;;;;;;;;;;;5.77;57.58;99903.50;5051260;28;19948;-82
2022/04/03 11:13:22;;;;;;;;;;;;;;;5.74;55.27;99898.81;5075884;28;20412;-87
2022/04/03 11:15:51;;;;;;;;;;;;;;;5.89;58.37;99894.75;5066062;28;19932;-90
2022/04/03 11:18:35;;;;;;;;;;;;;;;5.91;56.95;99900.63;5063228;28;20373;-85
2022/04/03 11:21:03;;;;;;;;;;;;;;;5.65;55.65;99904.78;5067978;28;19936;-86
2022/04/03 11:23:29;;;;;;;;;;;;;;;5.68;54.76;99900.41;5068267;28;19920;-86
2022/04/03 11:25:54;;;;;;;;;;;;;;;5.80;55.12;99886.94;5050181;28;19920;-85
2022/04/03 11:28:19;;;;;;;;;;;;;;;6.22;54.93;99885.75;5053452;28;20025;-85
2022/04/03 11:30:45;;;;;;;;;;;;;;;6.48;54.04;99890.53;5046889;28;20007;-85
2022/04/03 11:33:10;;;;;;;;;;;;;;;6.77;51.52;99879.91;5047659;28;19970;-81
2022/04/03 11:35:37;;;;;;;;;;;;;;;7.18;56.97;99881.69;5071368;28;19986;-81
2022/04/03 11:38:03;;;;;;;;;;;;;;;7.04;50.29;99885.44;5072249;28;19924;-81
2022/04/03 11:40:28;;;;;;;;;;;;;;;6.81;51.53;99893.66;5067395;28;20427;-81
2022/04/03 11:43:07;;;;;;;;;;;;;;;6.86;50.59;99893.19;5068455;28;19920;-82
2022/04/03 11:45:32;;;;;;;;;;;;;;;6.79;52.24;99896.84;5048363;28;19928;-81
2022/04/03 11:48:14;;;;;;;;;;;;;;;6.50;52.12;99890.91;5068787;28;19928;-80
2022/04/03 11:50:39;;;;;;;;;;;;;;;6.42;51.77;99900.47;5035655;28;19927;-80
2022/04/03 11:53:08;;;;;;;;;;;;;;;6.33;53.15;99905.66;5068477;28;19912;-80
2022/04/03 11:55:35;;;;;;;;;;;;;;;6.30;53.54;99906.50;5039774;28;19921;-80
2022/04/03 11:58:03;;;;;;;;;;;;;;;6.19;53.28;99911.31;5051003;28;19932;-81
2022/04/03 12:00:32;;;;;;;;;;;;;;;6.00;52.93;99928.47;5057079;28;20431;-80
2022/04/03 12:02:58;;;;;;;;;;;;;;;5.88;51.62;99926.22;5058257;28;19930;-80
2022/04/03 12:05:23;;;;;;;;;;;;;;;5.87;51.63;99921.88;5071503;28;19920;-80
2022/04/03 12:07:49;;;;;;;;;;;;;;;6.14;52.90;99914.56;5049442;28;19936;-86
2022/04/03 12:10:24;;;;;;;;;;;;;;;6.17;51.62;99910.97;5070403;28;19916;-82
2022/04/03 12:12:50;;;;;;;;;;;;;;;6.29;52.70;99907.69;5053311;28;20443;-81
2022/04/03 12:15:15;;;;;;;;;;;;;;;6.79;50.90;99907.06;5070185;28;19948;-81
2022/04/03 12:17:42;;;;;;;;;;;;;;;6.89;49.58;99900.63;5051158;28;19921;-80
2022/04/03 12:20:15;;;;;;;;;;;;;;;6.40;50.25;99902.03;5068356;28;19924;-80
2022/04/03 12:22:40;;;;;;;;;;;;;;;6.24;51.60;99910.88;5069015;28;19924;-80
2022/04/03 12:25:07;;;;;;;;;;;;;;;5.93;52.68;99901.00;5068625;28;19925;-80
2022/04/03 12:27:33;;;;;;;;;;;;;;;6.08;54.18;99913.41;5067177;28;19920;-80
2022/04/03 12:29:58;;;;;;;;;;;;;;;6.36;50.24;99910.34;5076819;28;19921;-84
2022/04/03 12:32:35;;;;;;;;;;;;;;;6.60;50.88;99904.94;5070259;28;20290;-85
2022/04/03 12:35:00;;;;;;;;;;;;;;;6.99;50.22;99902.47;5046120;28;19921;-85
2022/04/03 12:37:26;;;;;;;;;;;;;;;7.27;48.19;99904.00;5048772;28;19920;-85
2022/04/03 12:39:52;;;;;;;;;;;;;;;7.59;50.40;99903.50;5074090;28;19920;-87
2022/04/03 12:42:19;;;;;;;;;;;;;;;7.93;48.58;99898.53;5063285;28;20003;-88
2022/04/03 12:44:45;;;;;;;;;;;;;;;7.88;46.41;99910.09;5064045;28;19924;-80